sensor_id;sensor_type;location;lat;lon;timestamp;temperature;humidity
47660;DHT22;33403;43.608;1.458;2023-04-01T00:00:17;12.30;99.90
47660;DHT22;33403;43.608;1.458;2023-04-01T00:02:42;12.30;99.90
47660;DHT22;33403;43.608;1.458;2023-04-01T00:05:09;12.20;99.90
47660;DHT22;33403;43.608;1.458;2023-04-01T00:07:39;12.20;99.90
47660;DHT22;33403;43.608;1.458;2023-04-01T00:10:07;12.10;99.90
47660;DHT22;33403;43.608;1.458;2023-04-01T00:12:33;12.10;99.90
47660;DHT22;33403;43.608;1.458;2023-04-01T00:14:59;12.00;99.90
47660;DHT22;33403;43.608;1.458;2023-04-01T00:17:25;12.00;99.90
47660;DHT22;33403;43.608;1.458;2023-04-01T00:19:51;12.00;99.90
47660;DHT22;33403;43.608;1.458;2023-04-01T00:22:17;12.00;99.90
47660;DHT22;33403;43.608;1.458;2023-04-01T00:24:43;12.00;99.90
47660;DHT22;33403;43.608;1.458;2023-04-01T00:27:08;12.00;99.90
47660;DHT22;33403;43.608;1.458;2023-04-01T00:29:34;12.00;99.90
47660;DHT22;33403;43.608;1.458;2023-04-01T00:32:01;12.10;99.90
47660;DHT22;33403;43.608;1.458;2023-04-01T00:34:27;12.00;99.90
47660;DHT22;33403;43.608;1.458;2023-04-01T00:36:52;12.00;99.90
47660;DHT22;33403;43.608;1.458;2023-04-01T00:39:21;12.00;99.90
47660;DHT22;33403;43.608;1.458;2023-04-01T00:41:47;12.00;99.90
47660;DHT22;33403;43.608;1.458;2023-04-01T00:44:21;12.00;99.90
47660;DHT22;33403;43.608;1.458;2023-04-01T00:46:47;11.90;99.90
47660;DHT22;33403;43.608;1.458;2023-04-01T00:49:14;11.90;99.90
47660;DHT22;33403;43.608;1.458;2023-04-01T00:51:42;11.90;99.90
47660;DHT22;33403;43.608;1.458;2023-04-01T00:54:09;11.90;99.90
47660;DHT22;33403;43.608;1.458;2023-04-01T00:56:37;11.90;99.90
47660;DHT22;33403;43.608;1.458;2023-04-01T00:59:14;11.80;99.90
47660;DHT22;33403;43.608;1.458;2023-04-01T01:01:41;11.80;99.90
47660;DHT22;33403;43.608;1.458;2023-04-01T01:04:18;11.80;99.90
47660;DHT22;33403;43.608;1.458;2023-04-01T01:16:09;11.90;99.90
47660;DHT22;33403;43.608;1.458;2023-04-01T01:32:44;11.80;99.90
47660;DHT22;33403;43.608;1.458;2023-04-01T01:37:52;11.80;99.90
47660;DHT22;33403;43.608;1.458;2023-04-01T01:40:20;11.70;99.90
47660;DHT22;33403;43.608;1.458;2023-04-01T01:42:50;11.60;99.90
47660;DHT22;33403;43.608;1.458;2023-04-01T01:45:20;11.60;99.90
47660;DHT22;33403;43.608;1.458;2023-04-01T01:47:48;11.60;99.90
47660;DHT22;33403;43.608;1.458;2023-04-01T01:50:15;11.50;99.90
47660;DHT22;33403;43.608;1.458;2023-04-01T01:52:42;11.50;99.90
47660;DHT22;33403;43.608;1.458;2023-04-01T01:55:38;11.50;99.90
47660;DHT22;33403;43.608;1.458;2023-04-01T01:58:30;11.60;99.90
47660;DHT22;33403;43.608;1.458;2023-04-01T02:01:02;11.60;99.90
47660;DHT22;33403;43.608;1.458;2023-04-01T02:03:33;11.60;99.90
47660;DHT22;33403;43.608;1.458;2023-04-01T02:06:02;11.50;99.90
47660;DHT22;33403;43.608;1.458;2023-04-01T02:11:08;11.50;99.90
47660;DHT22;33403;43.608;1.458;2023-04-01T02:13:52;11.60;99.90
47660;DHT22;33403;43.608;1.458;2023-04-01T02:16:29;11.50;99.90
47660;DHT22;33403;43.608;1.458;2023-04-01T02:18:58;11.50;99.90
47660;DHT22;33403;43.608;1.458;2023-04-01T02:21:29;11.50;99.90
47660;DHT22;33403;43.608;1.458;2023-04-01T02:23:57;11.60;99.90
47660;DHT22;33403;43.608;1.458;2023-04-01T02:26:24;11.60;99.90
47660;DHT22;33403;43.608;1.458;2023-04-01T02:28:53;11.60;99.90
47660;DHT22;33403;43.608;1.458;2023-04-01T02:31:20;11.60;99.90
47660;DHT22;33403;43.608;1.458;2023-04-01T02:33:47;11.60;99.90
47660;DHT22;33403;43.608;1.458;2023-04-01T02:36:14;11.60;99.90
47660;DHT22;33403;43.608;1.458;2023-04-01T02:38:43;11.50;99.90
47660;DHT22;33403;43.608;1.458;2023-04-01T02:41:10;11.50;99.90
47660;DHT22;33403;43.608;1.458;2023-04-01T02:43:35;11.60;99.90
47660;DHT22;33403;43.608;1.458;2023-04-01T02:46:01;11.50;99.90
47660;DHT22;33403;43.608;1.458;2023-04-01T02:48:27;11.40;99.90
47660;DHT22;33403;43.608;1.458;2023-04-01T02:50:53;11.40;99.90
47660;DHT22;33403;43.608;1.458;2023-04-01T02:53:18;11.40;99.90
47660;DHT22;33403;43.608;1.458;2023-04-01T02:55:44;11.30;99.90
47660;DHT22;33403;43.608;1.458;2023-04-01T02:58:10;11.30;99.90
47660;DHT22;33403;43.608;1.458;2023-04-01T03:00:36;11.30;99.90
47660;DHT22;33403;43.608;1.458;2023-04-01T03:03:02;11.30;99.90
47660;DHT22;33403;43.608;1.458;2023-04-01T03:05:28;11.30;99.90
47660;DHT22;33403;43.608;1.458;2023-04-01T03:07:54;11.30;99.90
47660;DHT22;33403;43.608;1.458;2023-04-01T03:10:20;11.30;99.90
47660;DHT22;33403;43.608;1.458;2023-04-01T03:12:46;11.30;99.90
47660;DHT22;33403;43.608;1.458;2023-04-01T03:15:13;11.30;99.90
47660;DHT22;33403;43.608;1.458;2023-04-01T03:17:40;11.20;99.90
47660;DHT22;33403;43.608;1.458;2023-04-01T03:20:06;11.10;99.90
47660;DHT22;33403;43.608;1.458;2023-04-01T03:22:34;11.10;99.90
47660;DHT22;33403;43.608;1.458;2023-04-01T03:25:01;11.10;99.90
47660;DHT22;33403;43.608;1.458;2023-04-01T03:27:27;11.10;99.90
47660;DHT22;33403;43.608;1.458;2023-04-01T03:29:52;11.20;99.90
47660;DHT22;33403;43.608;1.458;2023-04-01T03:32:18;11.20;99.90
47660;DHT22;33403;43.608;1.458;2023-04-01T03:34:43;11.20;99.90
47660;DHT22;33403;43.608;1.458;2023-04-01T03:37:09;11.10;99.90
47660;DHT22;33403;43.608;1.458;2023-04-01T03:39:35;11.10;99.90
47660;DHT22;33403;43.608;1.458;2023-04-01T03:42:01;11.10;99.90
47660;DHT22;33403;43.608;1.458;2023-04-01T03:44:30;11.10;99.90
47660;DHT22;33403;43.608;1.458;2023-04-01T03:46:56;11.10;99.90
47660;DHT22;33403;43.608;1.458;2023-04-01T03:49:22;11.20;99.90
47660;DHT22;33403;43.608;1.458;2023-04-01T03:51:48;11.20;99.90
47660;DHT22;33403;43.608;1.458;2023-04-01T03:54:13;11.20;99.90
47660;DHT22;33403;43.608;1.458;2023-04-01T03:56:39;11.20;99.90
47660;DHT22;33403;43.608;1.458;2023-04-01T03:59:06;11.20;99.90
47660;DHT22;33403;43.608;1.458;2023-04-01T04:01:32;11.20;99.90
47660;DHT22;33403;43.608;1.458;2023-04-01T04:03:58;11.30;99.90
47660;DHT22;33403;43.608;1.458;2023-04-01T04:06:25;11.40;99.90
47660;DHT22;33403;43.608;1.458;2023-04-01T04:08:51;11.30;99.90
47660;DHT22;33403;43.608;1.458;2023-04-01T04:11:18;11.20;99.90
47660;DHT22;33403;43.608;1.458;2023-04-01T04:13:43;11.30;99.90
47660;DHT22;33403;43.608;1.458;2023-04-01T04:16:10;11.30;99.90
47660;DHT22;33403;43.608;1.458;2023-04-01T04:18:36;11.30;99.90
47660;DHT22;33403;43.608;1.458;2023-04-01T04:21:03;11.40;99.90
47660;DHT22;33403;43.608;1.458;2023-04-01T04:23:28;11.30;99.90
47660;DHT22;33403;43.608;1.458;2023-04-01T04:26:07;11.30;99.90
47660;DHT22;33403;43.608;1.458;2023-04-01T04:28:33;11.30;99.90
47660;DHT22;33403;43.608;1.458;2023-04-01T04:30:59;11.20;99.90
47660;DHT22;33403;43.608;1.458;2023-04-01T04:33:26;11.20;99.90
47660;DHT22;33403;43.608;1.458;2023-04-01T04:35:54;11.30;99.90
47660;DHT22;33403;43.608;1.458;2023-04-01T04:38:20;11.30;99.90
47660;DHT22;33403;43.608;1.458;2023-04-01T04:40:45;11.20;99.90
47660;DHT22;33403;43.608;1.458;2023-04-01T04:43:13;11.30;99.90
47660;DHT22;33403;43.608;1.458;2023-04-01T04:45:40;11.20;99.90
47660;DHT22;33403;43.608;1.458;2023-04-01T04:48:08;11.20;99.90
47660;DHT22;33403;43.608;1.458;2023-04-01T04:50:33;11.10;99.90
47660;DHT22;33403;43.608;1.458;2023-04-01T04:52:59;11.20;99.90
47660;DHT22;33403;43.608;1.458;2023-04-01T04:55:25;11.20;99.90
47660;DHT22;33403;43.608;1.458;2023-04-01T04:57:50;11.30;99.90
47660;DHT22;33403;43.608;1.458;2023-04-01T05:00:16;11.30;99.90
47660;DHT22;33403;43.608;1.458;2023-04-01T05:02:42;11.20;99.90
47660;DHT22;33403;43.608;1.458;2023-04-01T05:05:08;11.20;99.90
47660;DHT22;33403;43.608;1.458;2023-04-01T05:07:34;11.20;99.90
47660;DHT22;33403;43.608;1.458;2023-04-01T05:09:59;11.20;99.90
47660;DHT22;33403;43.608;1.458;2023-04-01T05:12:25;11.10;99.90
47660;DHT22;33403;43.608;1.458;2023-04-01T05:14:51;11.10;99.90
47660;DHT22;33403;43.608;1.458;2023-04-01T05:17:16;11.10;99.90
47660;DHT22;33403;43.608;1.458;2023-04-01T05:19:42;11.10;99.90
47660;DHT22;33403;43.608;1.458;2023-04-01T05:22:08;11.10;99.90
47660;DHT22;33403;43.608;1.458;2023-04-01T05:24:33;11.10;99.90
47660;DHT22;33403;43.608;1.458;2023-04-01T05:26:59;11.10;99.90
47660;DHT22;33403;43.608;1.458;2023-04-01T05:29:25;11.10;99.90
47660;DHT22;33403;43.608;1.458;2023-04-01T05:31:51;11.20;99.90
47660;DHT22;33403;43.608;1.458;2023-04-01T05:34:17;11.10;99.90
47660;DHT22;33403;43.608;1.458;2023-04-01T05:36:43;11.10;99.90
47660;DHT22;33403;43.608;1.458;2023-04-01T05:39:10;11.20;99.90
47660;DHT22;33403;43.608;1.458;2023-04-01T05:41:36;11.20;99.90
47660;DHT22;33403;43.608;1.458;2023-04-01T05:44:03;11.20;99.90
47660;DHT22;33403;43.608;1.458;2023-04-01T05:46:28;11.10;99.90
47660;DHT22;33403;43.608;1.458;2023-04-01T05:48:54;11.20;99.90
47660;DHT22;33403;43.608;1.458;2023-04-01T05:51:20;11.20;99.90
47660;DHT22;33403;43.608;1.458;2023-04-01T05:53:46;11.30;99.90
47660;DHT22;33403;43.608;1.458;2023-04-01T05:56:12;11.30;99.90
47660;DHT22;33403;43.608;1.458;2023-04-01T05:58:38;11.30;99.90
47660;DHT22;33403;43.608;1.458;2023-04-01T06:01:06;11.30;99.90
47660;DHT22;33403;43.608;1.458;2023-04-01T06:03:32;11.40;99.90
47660;DHT22;33403;43.608;1.458;2023-04-01T06:05:58;11.40;99.90
47660;DHT22;33403;43.608;1.458;2023-04-01T06:08:24;11.40;99.90
47660;DHT22;33403;43.608;1.458;2023-04-01T06:11:16;11.30;99.90
47660;DHT22;33403;43.608;1.458;2023-04-01T06:30:40;11.60;99.90
47660;DHT22;33403;43.608;1.458;2023-04-01T06:46:46;11.70;99.90
47660;DHT22;33403;43.608;1.458;2023-04-01T06:55:38;11.70;99.90
47660;DHT22;33403;43.608;1.458;2023-04-01T06:58:23;11.80;99.90
47660;DHT22;33403;43.608;1.458;2023-04-01T07:01:12;11.90;99.90
47660;DHT22;33403;43.608;1.458;2023-04-01T07:04:06;11.90;99.90
47660;DHT22;33403;43.608;1.458;2023-04-01T07:06:36;12.00;99.90
47660;DHT22;33403;43.608;1.458;2023-04-01T07:09:08;12.00;99.90
47660;DHT22;33403;43.608;1.458;2023-04-01T07:11:37;12.00;99.90
47660;DHT22;33403;43.608;1.458;2023-04-01T07:26:45;12.10;99.90
47660;DHT22;33403;43.608;1.458;2023-04-01T07:29:13;12.20;99.90
47660;DHT22;33403;43.608;1.458;2023-04-01T07:31:50;12.20;99.90
47660;DHT22;33403;43.608;1.458;2023-04-01T07:34:26;12.20;99.90
47660;DHT22;33403;43.608;1.458;2023-04-01T07:37:00;12.20;99.90
47660;DHT22;33403;43.608;1.458;2023-04-01T07:42:53;12.20;99.90
47660;DHT22;33403;43.608;1.458;2023-04-01T07:45:27;12.40;99.90
47660;DHT22;33403;43.608;1.458;2023-04-01T07:50:31;12.60;99.90
47660;DHT22;33403;43.608;1.458;2023-04-01T07:55:47;12.60;99.90
47660;DHT22;33403;43.608;1.458;2023-04-01T08:04:13;12.50;99.90
47660;DHT22;33403;43.608;1.458;2023-04-01T08:10:19;12.40;99.90
47660;DHT22;33403;43.608;1.458;2023-04-01T08:12:35;12.40;99.90
47660;DHT22;33403;43.608;1.458;2023-04-01T08:20:53;12.80;99.90
47660;DHT22;33403;43.608;1.458;2023-04-01T08:23:30;13.00;99.90
47660;DHT22;33403;43.608;1.458;2023-04-01T08:29:08;13.20;99.90
47660;DHT22;33403;43.608;1.458;2023-04-01T08:32:01;13.10;99.90
47660;DHT22;33403;43.608;1.458;2023-04-01T08:34:34;13.10;99.90
47660;DHT22;33403;43.608;1.458;2023-04-01T08:37:09;13.30;99.90
47660;DHT22;33403;43.608;1.458;2023-04-01T08:39:46;13.40;99.90
47660;DHT22;33403;43.608;1.458;2023-04-01T08:45:29;13.60;99.90
47660;DHT22;33403;43.608;1.458;2023-04-01T08:48:19;13.60;99.90
47660;DHT22;33403;43.608;1.458;2023-04-01T08:51:19;13.90;99.90
47660;DHT22;33403;43.608;1.458;2023-04-01T08:54:05;14.00;99.90
47660;DHT22;33403;43.608;1.458;2023-04-01T09:08:44;14.20;99.90
47660;DHT22;33403;43.608;1.458;2023-04-01T09:25:44;14.20;99.90
47660;DHT22;33403;43.608;1.458;2023-04-01T09:27:54;14.50;99.90
47660;DHT22;33403;43.608;1.458;2023-04-01T09:36:07;14.50;99.90
47660;DHT22;33403;43.608;1.458;2023-04-01T09:38:39;14.50;99.90
47660;DHT22;33403;43.608;1.458;2023-04-01T09:44:04;14.40;99.90
47660;DHT22;33403;43.608;1.458;2023-04-01T09:46:59;14.40;99.90
47660;DHT22;33403;43.608;1.458;2023-04-01T09:53:34;14.40;99.90
47660;DHT22;33403;43.608;1.458;2023-04-01T10:27:33;15.10;99.90
47660;DHT22;33403;43.608;1.458;2023-04-01T10:36:05;15.90;99.90
47660;DHT22;33403;43.608;1.458;2023-04-01T10:45:03;15.90;99.90
47660;DHT22;33403;43.608;1.458;2023-04-01T10:55:51;16.10;99.90
47660;DHT22;33403;43.608;1.458;2023-04-01T11:09:37;15.50;99.90
47660;DHT22;33403;43.608;1.458;2023-04-01T11:17:42;14.90;99.90
47660;DHT22;33403;43.608;1.458;2023-04-01T11:21:14;14.60;99.90
47660;DHT22;33403;43.608;1.458;2023-04-01T11:29:25;14.20;99.90
47660;DHT22;33403;43.608;1.458;2023-04-01T11:35:24;14.20;99.90
47660;DHT22;33403;43.608;1.458;2023-04-01T11:42:57;14.20;99.90
47660;DHT22;33403;43.608;1.458;2023-04-01T11:45:33;14.30;99.90
47660;DHT22;33403;43.608;1.458;2023-04-01T12:10:36;14.70;99.90
47660;DHT22;33403;43.608;1.458;2023-04-01T12:13:26;14.60;99.90
47660;DHT22;33403;43.608;1.458;2023-04-01T12:21:42;14.50;99.90
47660;DHT22;33403;43.608;1.458;2023-04-01T12:27:26;14.40;99.90
47660;DHT22;33403;43.608;1.458;2023-04-01T12:30:20;14.40;99.90
47660;DHT22;33403;43.608;1.458;2023-04-01T12:38:48;14.20;99.90
47660;DHT22;33403;43.608;1.458;2023-04-01T12:41:46;14.20;99.90
47660;DHT22;33403;43.608;1.458;2023-04-01T12:44:58;14.10;99.90
47660;DHT22;33403;43.608;1.458;2023-04-01T13:17:51;13.00;99.90
47660;DHT22;33403;43.608;1.458;2023-04-01T13:23:05;13.00;99.90
47660;DHT22;33403;43.608;1.458;2023-04-01T13:28:23;12.90;99.90
47660;DHT22;33403;43.608;1.458;2023-04-01T13:30:59;12.80;99.90
47660;DHT22;33403;43.608;1.458;2023-04-01T13:33:47;12.80;99.90
47660;DHT22;33403;43.608;1.458;2023-04-01T13:39:15;12.50;99.90
47660;DHT22;33403;43.608;1.458;2023-04-01T13:44:49;12.60;99.90
47660;DHT22;33403;43.608;1.458;2023-04-01T13:47:50;12.60;99.90
47660;DHT22;33403;43.608;1.458;2023-04-01T13:50:41;12.70;99.90
47660;DHT22;33403;43.608;1.458;2023-04-01T14:02:07;12.60;99.90
47660;DHT22;33403;43.608;1.458;2023-04-01T14:18:52;12.80;99.90
47660;DHT22;33403;43.608;1.458;2023-04-01T14:59:09;12.00;99.90
47660;DHT22;33403;43.608;1.458;2023-04-01T15:12:17;11.10;99.90
47660;DHT22;33403;43.608;1.458;2023-04-01T15:17:22;11.00;99.90
47660;DHT22;33403;43.608;1.458;2023-04-01T15:28:28;10.70;99.90
47660;DHT22;33403;43.608;1.458;2023-04-01T15:34:09;10.90;99.90
47660;DHT22;33403;43.608;1.458;2023-04-01T15:36:44;11.00;99.90
47660;DHT22;33403;43.608;1.458;2023-04-01T15:40:02;11.10;99.90
47660;DHT22;33403;43.608;1.458;2023-04-01T15:45:08;10.90;99.90
47660;DHT22;33403;43.608;1.458;2023-04-01T15:48:01;10.90;99.90
47660;DHT22;33403;43.608;1.458;2023-04-01T16:06:43;11.00;99.90
47660;DHT22;33403;43.608;1.458;2023-04-01T16:09:24;11.00;99.90
47660;DHT22;33403;43.608;1.458;2023-04-01T16:12:18;10.90;99.90
47660;DHT22;33403;43.608;1.458;2023-04-01T16:20:24;10.80;99.90
47660;DHT22;33403;43.608;1.458;2023-04-01T16:36:24;10.70;99.90
47660;DHT22;33403;43.608;1.458;2023-04-01T16:41:38;10.80;99.90
47660;DHT22;33403;43.608;1.458;2023-04-01T16:46:46;11.00;99.90
47660;DHT22;33403;43.608;1.458;2023-04-01T16:49:40;10.90;99.90
47660;DHT22;33403;43.608;1.458;2023-04-01T16:54:36;10.80;99.90
47660;DHT22;33403;43.608;1.458;2023-04-01T17:03:16;10.80;99.90
47660;DHT22;33403;43.608;1.458;2023-04-01T17:29:56;10.50;99.90
47660;DHT22;33403;43.608;1.458;2023-04-01T17:37:57;10.60;99.90
47660;DHT22;33403;43.608;1.458;2023-04-01T17:46:27;10.60;99.90
47660;DHT22;33403;43.608;1.458;2023-04-01T17:54:50;10.60;99.90
47660;DHT22;33403;43.608;1.458;2023-04-01T18:16:26;10.20;99.90
47660;DHT22;33403;43.608;1.458;2023-04-01T18:22:21;10.10;99.90
47660;DHT22;33403;43.608;1.458;2023-04-01T18:27:44;9.90;99.90
47660;DHT22;33403;43.608;1.458;2023-04-01T18:30:15;9.80;99.90
47660;DHT22;33403;43.608;1.458;2023-04-01T18:35:21;9.60;99.90
47660;DHT22;33403;43.608;1.458;2023-04-01T18:38:00;9.60;99.90
47660;DHT22;33403;43.608;1.458;2023-04-01T18:40:35;9.70;99.90
47660;DHT22;33403;43.608;1.458;2023-04-01T18:43:30;9.60;99.90
47660;DHT22;33403;43.608;1.458;2023-04-01T18:46:29;9.70;99.90
47660;DHT22;33403;43.608;1.458;2023-04-01T18:51:44;9.70;99.90
47660;DHT22;33403;43.608;1.458;2023-04-01T18:56:42;9.80;99.90
47660;DHT22;33403;43.608;1.458;2023-04-01T18:59:32;9.80;99.90
47660;DHT22;33403;43.608;1.458;2023-04-01T19:05:09;9.70;99.90
47660;DHT22;33403;43.608;1.458;2023-04-01T19:07:42;9.60;99.90
47660;DHT22;33403;43.608;1.458;2023-04-01T19:15:41;9.70;99.90
47660;DHT22;33403;43.608;1.458;2023-04-01T19:21:19;9.60;99.90
47660;DHT22;33403;43.608;1.458;2023-04-01T19:23:58;9.60;99.90
47660;DHT22;33403;43.608;1.458;2023-04-01T19:26:37;9.60;99.90
47660;DHT22;33403;43.608;1.458;2023-04-01T19:34:45;9.40;99.90
47660;DHT22;33403;43.608;1.458;2023-04-01T19:40:14;9.30;99.90
47660;DHT22;33403;43.608;1.458;2023-04-01T19:42:59;9.50;99.90
47660;DHT22;33403;43.608;1.458;2023-04-01T19:45:46;9.50;99.90
47660;DHT22;33403;43.608;1.458;2023-04-01T19:48:33;9.50;99.90
47660;DHT22;33403;43.608;1.458;2023-04-01T19:54:13;9.50;99.90
47660;DHT22;33403;43.608;1.458;2023-04-01T20:08:56;9.30;99.90
47660;DHT22;33403;43.608;1.458;2023-04-01T20:11:32;9.30;99.90
47660;DHT22;33403;43.608;1.458;2023-04-01T20:19:45;9.30;99.90
47660;DHT22;33403;43.608;1.458;2023-04-01T20:25:00;9.40;99.90
47660;DHT22;33403;43.608;1.458;2023-04-01T20:27:37;9.30;99.90
47660;DHT22;33403;43.608;1.458;2023-04-01T20:47:42;9.00;99.90
47660;DHT22;33403;43.608;1.458;2023-04-01T20:53:40;8.90;99.90
47660;DHT22;33403;43.608;1.458;2023-04-01T21:02:16;9.00;99.90
47660;DHT22;33403;43.608;1.458;2023-04-01T21:16:47;8.90;99.90
47660;DHT22;33403;43.608;1.458;2023-04-01T21:22:11;8.90;99.90
47660;DHT22;33403;43.608;1.458;2023-04-01T21:33:34;8.80;99.90
47660;DHT22;33403;43.608;1.458;2023-04-01T21:50:43;8.80;99.90
47660;DHT22;33403;43.608;1.458;2023-04-01T22:07:21;8.70;99.90
47660;DHT22;33403;43.608;1.458;2023-04-01T22:12:59;8.80;99.90
47660;DHT22;33403;43.608;1.458;2023-04-01T22:18:40;8.80;99.90
47660;DHT22;33403;43.608;1.458;2023-04-01T22:21:11;8.70;99.90
47660;DHT22;33403;43.608;1.458;2023-04-01T22:23:43;8.70;99.90
47660;DHT22;33403;43.608;1.458;2023-04-01T22:26:14;8.70;99.90
47660;DHT22;33403;43.608;1.458;2023-04-01T22:28:46;8.70;99.90
47660;DHT22;33403;43.608;1.458;2023-04-01T22:31:19;8.80;99.90
47660;DHT22;33403;43.608;1.458;2023-04-01T22:49:54;8.90;99.90
47660;DHT22;33403;43.608;1.458;2023-04-01T22:52:42;8.70;99.90
47660;DHT22;33403;43.608;1.458;2023-04-01T22:55:15;8.60;99.90
47660;DHT22;33403;43.608;1.458;2023-04-01T23:00:37;8.70;99.90
47660;DHT22;33403;43.608;1.458;2023-04-01T23:03:14;8.60;99.90
47660;DHT22;33403;43.608;1.458;2023-04-01T23:06:03;8.60;99.90
47660;DHT22;33403;43.608;1.458;2023-04-01T23:08:45;8.60;99.90
47660;DHT22;33403;43.608;1.458;2023-04-01T23:11:18;8.60;99.90
47660;DHT22;33403;43.608;1.458;2023-04-01T23:13:49;8.50;99.90
47660;DHT22;33403;43.608;1.458;2023-04-01T23:16:23;8.60;99.90
47660;DHT22;33403;43.608;1.458;2023-04-01T23:19:15;8.70;99.90
47660;DHT22;33403;43.608;1.458;2023-04-01T23:21:50;8.40;99.90
47660;DHT22;33403;43.608;1.458;2023-04-01T23:24:53;8.40;99.90
47660;DHT22;33403;43.608;1.458;2023-04-01T23:33:28;8.50;99.90
47660;DHT22;33403;43.608;1.458;2023-04-01T23:35:58;8.40;99.90
47660;DHT22;33403;43.608;1.458;2023-04-01T23:38:41;8.40;99.90
47660;DHT22;33403;43.608;1.458;2023-04-01T23:41:08;8.40;99.90
47660;DHT22;33403;43.608;1.458;2023-04-01T23:43:43;8.30;99.90
47660;DHT22;33403;43.608;1.458;2023-04-01T23:46:09;8.40;99.90
47660;DHT22;33403;43.608;1.458;2023-04-01T23:48:39;8.40;99.90
47660;DHT22;33403;43.608;1.458;2023-04-01T23:51:14;8.50;99.90
47660;DHT22;33403;43.608;1.458;2023-04-01T23:53:45;8.40;99.90
47660;DHT22;33403;43.608;1.458;2023-04-01T23:56:11;8.50;99.90
